createdAt,value
2022-12-20T01:50:37.116Z,18.25
2022-12-20T01:53:23.172Z,17.00
2022-12-20T01:56:00.210Z,16.10
2022-12-20T01:57:12.629Z,15.67
2022-12-20T01:58:23.023Z,16.28
2022-12-20T01:59:36.036Z,15.40
2022-12-20T02:02:04.892Z,13.48
2022-12-20T02:03:14.999Z,13.73
2022-12-20T02:04:24.697Z,13.12
2022-12-20T02:05:36.909Z,12.67
2022-12-20T02:06:45.644Z,12.08
2022-12-20T02:07:56.841Z,12.25
2022-12-20T02:09:09.465Z,12.70
2022-12-20T02:10:20.487Z,12.70
2022-12-20T02:11:35.945Z,12.17
2022-12-20T02:12:47.094Z,10.38
2022-12-20T02:17:18.574Z,9.80
2022-12-20T02:18:38.053Z,9.78
2022-12-20T02:19:57.656Z,9.68
2022-12-20T02:23:33.140Z,9.68
2022-12-20T02:26:33.805Z,9.48
2022-12-20T02:29:37.487Z,10.62
2022-12-20T02:30:49.063Z,8.88
2022-12-20T02:32:26.881Z,10.58
2022-12-20T02:33:36.164Z,10.20
2022-12-20T02:34:46.384Z,9.75
2022-12-20T02:35:56.520Z,9.70
2022-12-20T02:37:06.791Z,8.20
2022-12-20T02:38:32.327Z,9.65
2022-12-20T02:39:44.582Z,10.03
2022-12-20T02:41:10.221Z,9.98
2022-12-20T02:42:22.828Z,9.22
2022-12-20T02:43:52.240Z,9.95
2022-12-20T02:45:19.198Z,9.48
2022-12-20T02:47:50.781Z,10.30
2022-12-20T02:49:04.018Z,9.82
2022-12-20T02:50:17.676Z,8.72
2022-12-20T02:51:30.377Z,8.72
2022-12-20T02:52:42.656Z,9.92
2022-12-20T02:53:52.324Z,9.85
2022-12-20T02:55:04.953Z,9.50
2022-12-20T02:56:28.999Z,9.83
2022-12-20T02:57:50.335Z,9.05
2022-12-20T03:00:22.768Z,8.95
2022-12-20T03:01:36.051Z,9.50
2022-12-20T03:04:30.740Z,8.97
2022-12-20T03:05:46.187Z,8.80
2022-12-20T03:07:05.690Z,8.67
2022-12-20T03:08:15.312Z,8.70
2022-12-20T03:09:24.731Z,9.77
2022-12-20T03:10:35.017Z,9.10
2022-12-20T03:11:43.975Z,8.45
2022-12-20T03:12:52.882Z,9.65
2022-12-20T03:14:03.160Z,9.88
2022-12-20T03:15:12.812Z,11.17
2022-12-20T03:16:23.436Z,9.93
2022-12-20T03:17:32.050Z,10.25
2022-12-20T03:18:41.883Z,10.10
2022-12-20T03:19:51.456Z,9.85
2022-12-20T03:21:00.936Z,9.65
2022-12-20T03:22:16.249Z,9.50
2022-12-20T03:23:24.928Z,9.02
2022-12-20T03:24:34.274Z,10.77
2022-12-20T03:25:44.811Z,10.14
2022-12-20T03:26:57.114Z,9.47
2022-12-20T03:28:06.753Z,8.80
2022-12-20T03:29:16.599Z,9.23
2022-12-20T03:30:25.890Z,9.63
2022-12-20T03:31:35.813Z,10.03
2022-12-20T03:32:44.993Z,10.15
2022-12-20T03:33:55.738Z,10.65
2022-12-20T03:35:06.044Z,9.94
2022-12-20T03:36:17.297Z,9.82
2022-12-20T03:37:26.984Z,9.23
2022-12-20T03:38:36.364Z,8.82
2022-12-20T03:39:46.547Z,8.03
2022-12-20T03:40:56.830Z,7.70
2022-12-20T03:42:06.747Z,9.90
2022-12-20T03:43:17.697Z,7.32
2022-12-20T03:44:27.819Z,9.50
2022-12-20T03:45:37.129Z,9.75
2022-12-20T03:46:47.395Z,12.82
2022-12-20T03:49:12.490Z,11.15
2022-12-20T03:50:23.481Z,10.50
2022-12-20T03:51:32.757Z,11.07
2022-12-20T03:52:43.727Z,10.28
2022-12-20T03:53:55.418Z,8.38
2022-12-20T03:55:09.840Z,10.00
2022-12-20T03:56:24.540Z,10.37
2022-12-20T03:57:33.117Z,9.45
2022-12-20T03:58:43.476Z,9.78
2022-12-20T03:59:54.278Z,9.20
2022-12-20T04:01:18.871Z,9.10
2022-12-20T04:02:29.605Z,9.85
2022-12-20T04:03:39.852Z,10.90
2022-12-20T04:04:52.893Z,17.80
2022-12-20T04:06:03.766Z,12.62
2022-12-20T04:07:13.495Z,10.35
2022-12-20T04:08:24.066Z,10.66
2022-12-20T04:09:34.363Z,9.28
2022-12-20T04:12:18.385Z,8.38
2022-12-20T04:13:27.282Z,8.10
2022-12-20T04:14:37.058Z,7.93
2022-12-20T04:15:46.539Z,7.55
2022-12-20T04:16:56.882Z,7.60
2022-12-20T04:18:06.645Z,8.55
2022-12-20T04:19:16.168Z,7.23
2022-12-20T04:20:28.126Z,8.00
2022-12-20T04:21:40.409Z,7.60
2022-12-20T04:22:51.171Z,7.45
2022-12-20T04:25:11.481Z,8.12
2022-12-20T04:26:22.727Z,7.15
2022-12-20T04:27:31.823Z,6.92
2022-12-20T04:28:43.284Z,6.65
2022-12-20T04:29:57.993Z,7.50
2022-12-20T04:31:08.971Z,7.76
2022-12-20T04:32:18.543Z,7.23
2022-12-20T04:33:28.033Z,7.32
2022-12-20T04:34:39.117Z,6.70
2022-12-20T04:35:48.799Z,5.97
2022-12-20T04:36:58.029Z,7.22
2022-12-20T04:38:09.136Z,6.70
2022-12-20T04:39:19.716Z,7.78
2022-12-20T04:40:30.246Z,7.00
2022-12-20T04:41:41.113Z,6.50
2022-12-20T04:42:52.585Z,7.00
2022-12-20T04:44:02.629Z,6.82
2022-12-20T04:45:13.520Z,6.97
2022-12-20T04:46:25.888Z,6.32
2022-12-20T04:47:36.029Z,7.47
2022-12-20T04:49:00.547Z,6.67
2022-12-20T04:49:55.518Z,6.50
2022-12-20T04:51:05.636Z,6.23
2022-12-20T04:52:32.600Z,6.93
2022-12-20T04:53:47.528Z,5.85
2022-12-20T04:54:58.051Z,6.50
2022-12-20T04:56:09.761Z,7.32
2022-12-20T04:57:18.727Z,5.95
2022-12-20T04:58:30.456Z,7.12
2022-12-20T04:59:41.936Z,6.73
2022-12-20T05:00:53.301Z,7.68
2022-12-20T05:03:27.398Z,7.25
2022-12-20T05:05:53.302Z,7.12
2022-12-20T05:07:02.612Z,6.88
2022-12-20T05:08:12.726Z,7.62
2022-12-20T05:09:21.472Z,7.60
2022-12-20T05:10:32.883Z,11.25
2022-12-20T05:11:43.744Z,12.20
2022-12-20T05:12:53.414Z,12.38
2022-12-20T05:14:07.297Z,9.75
2022-12-20T05:15:17.465Z,11.50
2022-12-20T05:16:29.000Z,13.28
2022-12-20T05:18:49.571Z,13.88
2022-12-20T05:19:59.054Z,11.33
2022-12-20T05:21:26.082Z,11.92
2022-12-20T05:22:53.779Z,9.97
2022-12-20T05:24:22.738Z,10.70
2022-12-20T05:27:07.960Z,8.42
2022-12-20T05:28:17.519Z,8.45
2022-12-20T05:29:28.293Z,8.45
2022-12-20T05:30:39.668Z,8.57
2022-12-20T05:31:49.453Z,7.43
2022-12-20T05:32:59.747Z,7.55
2022-12-20T05:34:10.397Z,7.65
2022-12-20T05:35:21.149Z,7.50
2022-12-20T05:36:31.753Z,7.65
2022-12-20T05:37:41.168Z,7.72
2022-12-20T05:38:51.795Z,8.45
2022-12-20T05:40:01.671Z,8.95
2022-12-20T05:41:14.943Z,9.35
2022-12-20T05:43:42.095Z,9.97
2022-12-20T05:44:52.465Z,9.95
2022-12-20T05:46:03.312Z,9.50
2022-12-20T05:48:30.097Z,8.15
2022-12-20T05:49:38.810Z,6.98
2022-12-20T05:53:26.070Z,8.22
2022-12-20T11:01:52.304Z,5.47
2022-12-20T11:03:16.402Z,6.05
2022-12-20T11:04:29.954Z,5.13
2022-12-20T11:05:39.470Z,5.10
2022-12-20T11:06:48.956Z,5.47
2022-12-20T11:10:43.953Z,5.62
2022-12-20T11:12:07.225Z,5.50
2022-12-20T11:14:45.627Z,5.93
2022-12-20T11:19:11.522Z,5.27
2022-12-20T11:20:39.911Z,6.17
2022-12-20T11:22:01.733Z,5.15
2022-12-20T11:26:53.563Z,5.37
2022-12-20T11:28:17.891Z,5.85
2022-12-20T11:29:34.764Z,5.38
2022-12-20T11:30:52.283Z,4.82
2022-12-20T11:33:32.833Z,5.33
2022-12-20T11:34:56.373Z,5.68
2022-12-20T11:39:16.210Z,5.65
2022-12-20T11:40:34.631Z,4.80
2022-12-20T11:42:10.677Z,5.50
2022-12-20T11:44:23.507Z,6.10
2022-12-20T11:47:05.260Z,6.28
2022-12-20T11:50:05.224Z,5.67
2022-12-20T11:51:27.733Z,6.08
2022-12-20T11:52:50.263Z,5.57
2022-12-20T11:55:36.351Z,6.12
2022-12-20T11:56:49.011Z,5.70
2022-12-20T11:58:20.546Z,5.48
2022-12-20T11:59:22.369Z,5.62
2022-12-20T12:00:35.129Z,5.73
2022-12-20T12:01:48.980Z,5.88
2022-12-20T12:03:02.847Z,6.07
2022-12-20T12:10:07.642Z,5.87
2022-12-20T12:12:49.157Z,5.45
2022-12-20T12:14:01.210Z,6.87
2022-12-20T12:15:38.532Z,6.83
2022-12-20T12:16:52.097Z,5.50
2022-12-20T12:18:05.389Z,5.78
2022-12-20T12:19:15.415Z,6.58
2022-12-20T12:22:09.334Z,6.67
2022-12-20T12:24:48.515Z,5.78
2022-12-20T12:26:01.552Z,5.70
2022-12-20T12:28:34.111Z,5.95
2022-12-20T12:29:43.257Z,6.90
2022-12-20T12:30:59.821Z,5.75
2022-12-20T12:35:04.536Z,6.48
2022-12-20T12:37:38.932Z,6.10
2022-12-20T12:39:01.708Z,6.70
2022-12-20T12:40:21.866Z,6.13
2022-12-20T12:41:52.422Z,6.20
2022-12-20T12:44:57.657Z,6.12
2022-12-20T12:47:40.576Z,5.58
2022-12-20T12:48:59.443Z,5.43
2022-12-20T12:50:12.204Z,5.47
2022-12-20T12:51:24.907Z,6.38
2022-12-20T12:52:45.683Z,5.88
2022-12-20T12:54:16.230Z,5.97
2022-12-20T12:55:46.175Z,5.85
2022-12-20T12:58:28.767Z,5.98
2022-12-20T13:01:12.791Z,6.30
2022-12-20T13:03:56.441Z,5.83
2022-12-20T13:05:12.801Z,6.37
2022-12-20T13:06:29.678Z,5.74
2022-12-20T13:07:43.058Z,5.78
2022-12-20T13:09:08.900Z,6.28
2022-12-20T13:11:46.558Z,6.77
2022-12-20T13:12:59.888Z,6.02
2022-12-20T13:14:25.083Z,6.85
2022-12-20T13:17:15.241Z,6.95
2022-12-20T13:18:17.161Z,5.93
2022-12-20T13:19:30.641Z,6.50
2022-12-20T13:20:40.994Z,6.90
2022-12-20T13:23:17.743Z,6.65
2022-12-20T13:24:43.984Z,6.90
2022-12-20T13:25:53.763Z,7.45
2022-12-20T13:27:05.160Z,7.00
2022-12-20T13:28:26.838Z,7.32
2022-12-20T13:29:37.260Z,6.62
2022-12-20T13:30:48.632Z,7.00
2022-12-20T13:31:57.577Z,7.07
2022-12-20T13:33:43.569Z,6.82
2022-12-20T13:34:56.583Z,7.60
2022-12-20T13:36:12.666Z,7.52
2022-12-20T13:39:26.456Z,7.32
2022-12-20T13:40:45.195Z,7.12
2022-12-20T13:42:16.657Z,6.62
2022-12-20T13:44:48.971Z,7.57
2022-12-20T13:47:37.797Z,7.00
2022-12-20T13:50:02.603Z,7.25
2022-12-20T13:51:18.674Z,7.23
2022-12-20T13:52:30.978Z,7.05
2022-12-20T13:55:02.158Z,7.60
2022-12-20T13:57:45.996Z,7.22
2022-12-20T13:58:59.354Z,7.53
2022-12-20T14:00:17.483Z,8.03
2022-12-20T14:01:30.499Z,7.77
2022-12-20T14:02:43.675Z,8.27
2022-12-20T14:05:22.047Z,7.47
2022-12-20T14:06:31.760Z,7.82
2022-12-20T14:07:42.330Z,7.35
2022-12-20T14:08:52.754Z,7.38
2022-12-20T14:10:04.079Z,8.60
2022-12-20T14:12:46.521Z,8.22
2022-12-20T14:14:03.969Z,7.40
2022-12-20T14:16:50.175Z,7.72
2022-12-20T14:19:32.148Z,7.02
2022-12-20T14:20:41.731Z,7.60
2022-12-20T14:21:51.757Z,7.72
2022-12-20T14:24:35.113Z,7.83
2022-12-20T18:48:46.549Z,14.34
2022-12-20T18:51:13.791Z,14.30
2022-12-20T18:52:23.944Z,14.80
2022-12-20T18:53:34.963Z,13.90
2022-12-20T18:54:43.509Z,15.12
2022-12-20T18:55:52.132Z,15.18
2022-12-20T18:58:38.897Z,14.18
2022-12-20T18:59:47.797Z,12.65
2022-12-20T19:00:58.886Z,14.17
2022-12-20T19:02:12.102Z,26.15
2022-12-20T19:03:21.051Z,14.65
2022-12-20T19:04:30.032Z,14.07
2022-12-20T19:05:39.238Z,14.60
2022-12-20T19:06:47.850Z,14.30
2022-12-20T19:09:13.561Z,16.22
2022-12-20T19:11:33.074Z,14.55
2022-12-20T19:12:41.746Z,13.88
2022-12-20T19:13:51.866Z,13.55
2022-12-20T19:15:00.521Z,11.63
2022-12-20T19:16:16.561Z,13.38
2022-12-20T19:17:35.134Z,13.72
2022-12-20T19:18:45.888Z,14.75
2022-12-20T19:19:54.394Z,13.33
2022-12-20T19:21:08.742Z,13.82
2022-12-20T19:22:17.359Z,13.90
2022-12-20T19:23:26.370Z,14.27
2022-12-20T19:24:35.881Z,13.73
2022-12-20T19:25:44.614Z,14.12
2022-12-20T19:26:53.641Z,14.37
2022-12-20T19:29:19.908Z,14.86
2022-12-20T19:30:29.504Z,14.30
2022-12-20T19:31:38.896Z,14.60
2022-12-20T19:32:49.081Z,14.87
2022-12-20T19:34:01.083Z,14.25
2022-12-20T19:35:45.033Z,14.05
2022-12-20T19:36:27.901Z,14.30
2022-12-20T19:37:37.670Z,14.90
2022-12-20T19:38:52.343Z,13.75
2022-12-20T19:40:01.816Z,14.30
2022-12-20T19:41:11.365Z,13.63
2022-12-20T19:42:24.930Z,15.05
2022-12-20T19:43:37.028Z,14.02
2022-12-20T19:44:46.639Z,13.78
2022-12-20T19:45:59.010Z,13.60
2022-12-20T19:47:08.387Z,13.60
2022-12-20T19:48:17.150Z,13.98
2022-12-20T19:49:25.720Z,13.83
2022-12-20T19:50:34.678Z,13.85
2022-12-20T19:51:43.348Z,14.15
2022-12-20T19:54:10.861Z,12.87
2022-12-20T19:55:19.385Z,12.75
2022-12-20T19:56:31.666Z,13.12
2022-12-20T19:57:40.512Z,12.95
2022-12-20T19:58:49.997Z,13.85
2022-12-20T19:59:59.070Z,12.50
2022-12-20T20:02:25.243Z,12.75
2022-12-20T20:03:36.155Z,13.00
2022-12-20T20:05:55.839Z,12.68
2022-12-20T20:07:04.930Z,12.80
2022-12-20T20:08:14.876Z,13.13
2022-12-20T20:09:23.901Z,12.22
2022-12-20T20:10:32.768Z,12.42
2022-12-20T20:11:41.742Z,12.60
2022-12-20T20:12:52.332Z,12.35
2022-12-20T20:14:03.002Z,13.43
2022-12-20T20:15:11.780Z,12.18
2022-12-20T20:16:22.730Z,12.82
2022-12-20T20:17:32.691Z,11.97
2022-12-20T20:18:41.423Z,12.20
2022-12-20T20:19:51.360Z,12.57
2022-12-20T20:22:23.053Z,12.82
2022-12-20T20:23:30.007Z,11.70
2022-12-20T20:24:38.899Z,12.34
2022-12-20T20:25:54.235Z,11.85
2022-12-20T20:28:18.326Z,14.05
2022-12-20T20:29:27.387Z,15.07
2022-12-20T20:31:57.714Z,12.12
2022-12-20T20:33:07.103Z,13.02
2022-12-20T20:34:15.846Z,12.03
2022-12-20T20:35:25.426Z,12.43
2022-12-20T20:37:49.122Z,13.47
2022-12-20T20:38:58.802Z,12.80
2022-12-20T20:40:08.824Z,12.30
2022-12-20T20:41:18.398Z,12.45
2022-12-20T20:42:27.980Z,12.06
2022-12-20T20:43:38.478Z,11.47
2022-12-20T20:44:47.021Z,12.35
2022-12-20T20:45:57.240Z,11.63
2022-12-20T20:48:21.990Z,12.80
2022-12-20T20:49:31.583Z,12.40
2022-12-20T20:50:40.938Z,12.45
2022-12-20T20:51:52.005Z,11.73
2022-12-20T20:53:00.561Z,12.87
2022-12-20T20:54:10.023Z,12.46
2022-12-20T20:55:18.643Z,13.13
2022-12-20T20:56:27.693Z,12.38
2022-12-20T20:57:36.968Z,12.25
2022-12-20T20:58:46.311Z,12.90
2022-12-20T20:59:54.973Z,12.00
2022-12-20T21:01:06.926Z,12.35
2022-12-20T21:02:15.597Z,12.95
2022-12-20T21:03:26.026Z,12.53
2022-12-20T21:04:34.793Z,11.90
2022-12-20T21:06:32.385Z,12.17
2022-12-20T21:06:57.283Z,12.45
2022-12-20T21:08:06.959Z,12.10
2022-12-20T21:09:16.185Z,12.05
2022-12-20T21:10:24.970Z,13.23
2022-12-20T21:12:51.880Z,12.30
2022-12-20T21:14:00.404Z,12.15
2022-12-20T21:15:26.355Z,12.47
2022-12-20T21:16:23.042Z,12.22
2022-12-20T21:17:32.148Z,12.95
2022-12-20T21:18:42.050Z,12.33
2022-12-20T21:19:50.583Z,13.18
2022-12-20T21:22:14.248Z,13.15
2022-12-20T21:23:23.020Z,13.25
2022-12-20T21:24:31.636Z,12.62
2022-12-20T21:25:40.699Z,12.48
2022-12-20T21:26:51.797Z,12.55
2022-12-20T21:29:10.061Z,12.80
2022-12-20T21:30:19.198Z,12.17
2022-12-20T21:31:28.039Z,11.95
2022-12-20T21:32:40.990Z,12.37
2022-12-20T21:33:49.529Z,12.07
2022-12-20T21:34:59.087Z,12.32
2022-12-20T21:37:30.567Z,11.43
2022-12-20T21:38:40.156Z,12.85
2022-12-20T21:39:49.858Z,13.42
2022-12-20T21:41:04.528Z,12.12
2022-12-20T21:42:13.188Z,11.70
2022-12-20T21:44:36.811Z,11.63
2022-12-20T21:45:49.489Z,11.77
2022-12-20T21:46:58.337Z,12.28
2022-12-20T21:48:08.153Z,12.07
2022-12-20T21:49:17.122Z,12.48
